createdAt,value
2022-10-20T00:01:20.368Z,24.77
2022-10-20T00:03:48.159Z,25.00
2022-10-20T00:06:28.706Z,25.25
2022-10-20T00:08:57.342Z,25.05
2022-10-20T00:11:26.813Z,23.92
2022-10-20T00:13:55.042Z,26.00
2022-10-20T00:16:24.855Z,25.73
2022-10-20T00:18:51.938Z,24.60
2022-10-20T00:21:23.959Z,23.05
2022-10-20T00:23:51.478Z,22.90
2022-10-20T00:26:21.670Z,22.67
2022-10-20T00:28:55.417Z,23.75
2022-10-20T00:31:24.158Z,22.67
2022-10-20T00:33:52.839Z,23.63
2022-10-20T00:36:22.293Z,22.33
2022-10-20T00:38:58.372Z,23.20
2022-10-20T00:41:27.361Z,22.63
2022-10-20T00:44:04.094Z,22.88
2022-10-20T00:46:42.083Z,21.77
2022-10-20T00:49:24.282Z,23.15
2022-10-20T00:51:52.801Z,22.08
2022-10-20T00:54:24.788Z,23.00
2022-10-20T00:56:55.734Z,21.75
2022-10-20T00:59:28.369Z,22.13
2022-10-20T01:01:59.978Z,23.38
2022-10-20T01:04:31.926Z,23.17
2022-10-20T01:07:02.621Z,22.38
2022-10-20T01:09:30.184Z,22.13
2022-10-20T01:12:19.412Z,23.27
2022-10-20T01:15:10.880Z,22.88
2022-10-20T01:18:00.085Z,23.52
2022-10-20T01:20:55.947Z,21.80
2022-10-20T01:23:31.725Z,22.48
2022-10-20T01:26:29.968Z,22.73
2022-10-20T01:29:41.314Z,21.33
2022-10-20T01:32:23.400Z,21.80
2022-10-20T01:34:56.533Z,23.48
2022-10-20T01:37:49.026Z,23.55
2022-10-20T01:40:50.305Z,22.23
2022-10-20T01:43:20.411Z,22.88
2022-10-20T01:45:52.728Z,21.42
2022-10-20T01:50:49.980Z,22.52
2022-10-20T01:53:16.875Z,22.45
2022-10-20T01:55:44.023Z,22.15
2022-10-20T01:58:13.762Z,22.73
2022-10-20T02:00:45.304Z,22.30
2022-10-20T02:03:28.962Z,21.48
2022-10-20T02:06:20.258Z,23.08
2022-10-20T02:08:54.263Z,20.58
2022-10-20T02:11:57.914Z,23.08
2022-10-20T02:14:29.312Z,21.88
2022-10-20T02:17:13.761Z,20.10
2022-10-20T02:19:42.904Z,20.27
2022-10-20T02:22:16.702Z,19.33
2022-10-20T02:24:47.660Z,20.05
2022-10-20T02:27:29.513Z,18.92
2022-10-20T02:30:30.971Z,19.20
2022-10-20T02:33:00.599Z,18.58
2022-10-20T02:35:31.013Z,18.38
2022-10-20T02:38:07.239Z,17.73
2022-10-20T02:40:39.386Z,18.35
2022-10-20T02:43:07.340Z,16.73
2022-10-20T02:45:34.068Z,17.13
2022-10-20T02:48:07.942Z,18.20
2022-10-20T02:50:42.907Z,18.48
2022-10-20T02:53:09.700Z,16.92
2022-10-20T02:55:41.245Z,17.02
2022-10-20T02:58:09.358Z,17.73
2022-10-20T03:00:36.139Z,17.63
2022-10-20T03:03:07.520Z,18.45
2022-10-20T03:05:50.770Z,18.23
2022-10-20T03:08:18.807Z,17.90
2022-10-20T03:10:45.598Z,18.13
2022-10-20T03:13:14.352Z,16.98
2022-10-20T03:15:41.047Z,17.58
2022-10-20T03:18:11.952Z,17.13
2022-10-20T03:20:41.663Z,17.30
2022-10-20T03:23:08.373Z,17.20
2022-10-20T03:25:35.235Z,17.65
2022-10-20T03:28:05.144Z,17.25
2022-10-20T03:30:36.738Z,18.00
2022-10-20T03:33:07.860Z,18.40
2022-10-20T03:35:40.427Z,19.00
2022-10-20T03:38:12.952Z,18.48
2022-10-20T03:40:45.489Z,18.45
2022-10-20T03:43:23.611Z,18.13
2022-10-20T03:45:52.876Z,19.40
2022-10-20T03:48:22.586Z,19.10
2022-10-20T03:50:51.237Z,18.30
2022-10-20T03:53:19.827Z,18.25
2022-10-20T03:55:49.518Z,18.50
2022-10-20T03:58:21.552Z,18.10
2022-10-20T04:00:51.969Z,19.35
2022-10-20T04:03:21.919Z,18.50
2022-10-20T04:05:50.155Z,18.15
2022-10-20T04:08:17.026Z,18.50
2022-10-20T04:10:46.749Z,18.15
2022-10-20T04:13:16.026Z,19.35
2022-10-20T04:15:48.929Z,18.48
2022-10-20T04:18:18.551Z,18.42
2022-10-20T04:20:52.007Z,18.58
2022-10-20T04:23:18.736Z,18.33
2022-10-20T04:25:48.879Z,17.95
2022-10-20T04:28:17.384Z,17.08
2022-10-20T04:30:46.283Z,17.70
2022-10-20T04:33:21.905Z,17.13
2022-10-20T04:38:15.266Z,16.75
2022-10-20T04:40:42.012Z,18.60
2022-10-20T04:43:11.553Z,17.73
2022-10-20T04:48:18.661Z,17.23
2022-10-20T04:50:46.945Z,17.35
2022-10-20T04:53:13.648Z,18.60
2022-10-20T04:55:40.437Z,18.40
2022-10-20T04:58:07.127Z,17.45
2022-10-20T05:00:33.965Z,17.80
2022-10-20T05:03:00.904Z,17.65
2022-10-20T05:05:36.253Z,18.65
2022-10-20T05:08:02.941Z,16.35
2022-10-20T05:10:33.154Z,17.75
2022-10-20T05:13:03.270Z,17.27
2022-10-20T05:15:31.345Z,17.20
2022-10-20T05:18:04.036Z,16.73
2022-10-20T05:20:36.793Z,16.67
2022-10-20T05:23:11.017Z,16.63
2022-10-20T05:25:38.386Z,16.40
2022-10-20T05:28:08.169Z,16.40
2022-10-20T05:30:36.944Z,16.88
2022-10-20T05:33:04.124Z,16.77
2022-10-20T05:35:34.581Z,16.30
2022-10-20T05:38:04.398Z,17.15
2022-10-20T05:40:33.940Z,15.82
2022-10-20T05:43:05.360Z,15.30
2022-10-20T05:45:32.443Z,15.88
2022-10-20T05:47:59.162Z,15.85
2022-10-20T05:50:25.861Z,15.98
2022-10-20T05:52:52.639Z,16.30
2022-10-20T05:55:19.345Z,17.05
2022-10-20T05:57:49.371Z,17.30
2022-10-20T06:00:16.923Z,17.20
2022-10-20T06:02:43.729Z,17.23
2022-10-20T06:05:10.410Z,16.35
2022-10-20T06:07:39.788Z,16.50
2022-10-20T06:10:06.672Z,15.73
2022-10-20T06:12:39.447Z,15.57
2022-10-20T06:15:07.231Z,15.55
2022-10-20T06:17:33.841Z,16.00
2022-10-20T06:20:00.840Z,16.42
2022-10-20T06:22:27.485Z,16.80
2022-10-20T06:24:54.239Z,18.15
2022-10-20T06:27:25.231Z,18.55
2022-10-20T06:29:52.691Z,20.08
2022-10-20T06:32:19.486Z,19.70
2022-10-20T06:34:46.402Z,21.80
2022-10-20T06:37:13.279Z,22.00
2022-10-20T06:39:42.545Z,21.00
2022-10-20T06:42:17.355Z,22.27
2022-10-20T06:44:45.080Z,21.00
2022-10-20T06:47:16.978Z,17.30
2022-10-20T06:49:50.565Z,19.80
2022-10-20T06:52:17.385Z,19.52
2022-10-20T06:54:44.376Z,12.30
2022-10-20T06:57:11.165Z,14.68
2022-10-20T06:59:39.644Z,20.67
2022-10-20T07:02:09.846Z,14.98
2022-10-20T07:04:36.908Z,22.90
2022-10-20T07:07:04.963Z,19.75
2022-10-20T07:09:32.920Z,26.25
2022-10-20T07:12:00.159Z,27.30
2022-10-20T07:14:32.398Z,28.50
2022-10-20T07:17:00.448Z,28.15
2022-10-20T07:19:27.292Z,27.67
2022-10-20T07:22:00.163Z,29.08
2022-10-20T07:24:30.007Z,28.35
2022-10-20T07:26:58.981Z,27.17
2022-10-20T07:29:28.813Z,28.13
2022-10-20T07:32:01.336Z,29.52
2022-10-20T07:34:30.719Z,27.80
2022-10-20T07:37:00.031Z,27.38
2022-10-20T07:39:30.065Z,17.83
2022-10-20T07:41:59.695Z,27.73
2022-10-20T07:44:33.916Z,18.42
2022-10-20T07:47:00.640Z,17.48
2022-10-20T07:49:48.953Z,22.38
2022-10-20T07:52:16.788Z,24.75
2022-10-20T07:55:01.613Z,23.52
2022-10-20T07:57:49.971Z,22.15
2022-10-20T08:00:17.372Z,23.10
2022-10-20T08:02:53.551Z,20.02
2022-10-20T08:05:27.967Z,26.05
2022-10-20T08:08:02.793Z,16.92
2022-10-20T08:10:32.717Z,15.20
2022-10-20T08:12:59.902Z,24.45
2022-10-20T08:15:30.236Z,24.17
2022-10-20T08:17:58.761Z,26.00
2022-10-20T08:20:31.317Z,25.33
2022-10-20T08:22:58.876Z,21.63
2022-10-20T08:25:31.781Z,14.35
2022-10-20T08:27:59.969Z,14.38
2022-10-20T08:30:27.279Z,31.77
2022-10-20T08:32:56.079Z,31.48
2022-10-20T08:35:27.859Z,21.40
2022-10-20T08:37:58.795Z,31.63
2022-10-20T08:40:30.214Z,20.55
2022-10-20T08:43:00.238Z,15.47
2022-10-20T08:45:35.947Z,13.88
2022-10-20T08:48:20.179Z,34.63
2022-10-20T08:50:52.992Z,34.15
2022-10-20T08:53:27.788Z,32.40
2022-10-20T08:55:56.265Z,36.90
2022-10-20T08:58:25.082Z,35.92
2022-10-20T09:01:13.165Z,21.95
2022-10-20T09:03:41.484Z,34.67
2022-10-20T09:06:23.080Z,38.13
2022-10-20T09:08:58.897Z,38.72
2022-10-20T09:11:44.689Z,20.02
2022-10-20T09:14:16.786Z,40.42
2022-10-20T09:17:00.317Z,39.35
2022-10-20T09:19:34.451Z,23.95
2022-10-20T09:22:05.748Z,29.15
2022-10-20T09:24:40.741Z,36.13
2022-10-20T09:27:35.226Z,34.22
2022-10-20T09:30:23.967Z,43.50
2022-10-20T09:32:51.030Z,37.47
2022-10-20T09:35:30.673Z,41.65
2022-10-20T09:38:00.591Z,25.17
2022-10-20T09:40:34.668Z,35.33
2022-10-20T09:43:16.765Z,38.97
2022-10-20T09:45:56.342Z,32.75
2022-10-20T09:48:32.028Z,33.50
2022-10-20T09:50:59.249Z,38.95
2022-10-20T09:53:33.866Z,34.47
2022-10-20T09:56:04.093Z,38.75
2022-10-20T09:58:37.997Z,39.60
2022-10-20T10:01:16.581Z,39.40
2022-10-20T10:03:45.202Z,40.40
2022-10-20T10:06:30.791Z,41.25
2022-10-20T10:09:02.285Z,44.78
2022-10-20T10:11:35.070Z,44.17
2022-10-20T10:14:02.479Z,43.50
2022-10-20T10:16:41.031Z,45.80
2022-10-20T10:19:08.163Z,43.20
2022-10-20T10:21:47.386Z,43.95
2022-10-20T10:24:42.395Z,34.50
2022-10-20T10:27:38.983Z,32.15
2022-10-20T10:30:24.507Z,31.20
2022-10-20T10:32:51.283Z,44.33
2022-10-20T10:35:41.183Z,42.67
2022-10-20T10:38:13.507Z,33.97
2022-10-20T10:40:45.924Z,31.27
2022-10-20T10:43:49.837Z,34.88
2022-10-20T10:46:40.962Z,44.28
2022-10-20T10:49:28.330Z,43.70
2022-10-20T10:52:26.973Z,42.55
2022-10-20T10:55:01.691Z,44.33
2022-10-20T10:57:32.574Z,35.28
2022-10-20T11:00:04.422Z,33.40
2022-10-20T11:03:09.981Z,33.35
2022-10-20T11:05:55.629Z,37.78
2022-10-20T11:08:47.391Z,23.33
2022-10-20T11:11:44.479Z,21.13
2022-10-20T11:14:23.407Z,40.92
2022-10-20T11:16:56.263Z,43.75
2022-10-20T11:19:46.298Z,30.10
2022-10-20T11:22:42.582Z,28.35
2022-10-20T11:25:51.391Z,23.02
2022-10-20T11:28:44.612Z,22.15
2022-10-20T11:31:49.230Z,36.15
2022-10-20T11:34:30.077Z,39.60
2022-10-20T11:37:06.475Z,37.67
2022-10-20T11:39:57.407Z,38.33
2022-10-20T11:42:42.002Z,36.88
2022-10-20T11:45:54.523Z,40.47
2022-10-20T11:48:52.359Z,39.00
2022-10-20T11:51:31.433Z,37.72
2022-10-20T11:54:31.578Z,36.47
2022-10-20T11:57:32.786Z,29.45
2022-10-20T12:00:27.281Z,29.65
2022-10-20T12:03:15.843Z,33.90
2022-10-20T12:06:33.065Z,34.97
2022-10-20T12:12:22.347Z,37.35
2022-10-20T12:15:02.579Z,31.15
2022-10-20T12:17:31.474Z,35.15
2022-10-20T12:20:23.270Z,24.08
2022-10-20T12:22:55.373Z,23.10
2022-10-20T12:25:25.821Z,39.53
2022-10-20T12:28:20.795Z,32.05
2022-10-20T12:30:59.598Z,34.92
2022-10-20T12:33:37.134Z,31.25
2022-10-20T12:36:26.388Z,22.40
2022-10-20T12:39:08.138Z,19.75
2022-10-20T12:41:39.670Z,21.15
2022-10-20T12:44:15.583Z,28.67
2022-10-20T12:46:51.844Z,35.15
2022-10-20T12:49:31.578Z,25.10
2022-10-20T12:52:04.173Z,38.83
2022-10-20T12:54:53.389Z,29.30
2022-10-20T12:57:33.383Z,27.27
2022-10-20T13:00:00.239Z,23.83
2022-10-20T13:02:26.856Z,22.70
2022-10-20T13:04:56.214Z,19.65
2022-10-20T13:07:52.669Z,19.90
2022-10-20T13:10:31.377Z,19.30
2022-10-20T13:13:04.484Z,18.60
2022-10-20T13:15:49.771Z,37.60
2022-10-20T13:18:39.525Z,23.60
2022-10-20T13:21:34.104Z,33.15
2022-10-20T13:24:31.151Z,36.40
2022-10-20T13:27:11.545Z,22.17
2022-10-20T13:29:43.994Z,37.08
2022-10-20T13:32:21.742Z,21.92
2022-10-20T13:35:11.321Z,20.67
2022-10-20T13:38:00.114Z,27.70
2022-10-20T13:41:09.103Z,34.03
2022-10-20T13:44:22.710Z,25.73
2022-10-20T13:47:08.569Z,35.63
2022-10-20T13:49:53.759Z,28.20
2022-10-20T13:52:21.832Z,17.83
2022-10-20T13:54:54.395Z,27.45
2022-10-20T13:57:38.608Z,19.70
2022-10-20T14:00:19.137Z,18.55
2022-10-20T14:02:58.277Z,20.10
2022-10-20T14:05:26.704Z,33.10
2022-10-20T14:07:53.560Z,20.65
2022-10-20T14:10:21.846Z,18.65
2022-10-20T14:12:48.639Z,30.95
2022-10-20T14:15:32.826Z,18.85
2022-10-20T14:18:05.764Z,31.50
2022-10-20T14:20:37.486Z,20.45
2022-10-20T14:23:06.104Z,16.73
2022-10-20T14:25:32.996Z,29.67
2022-10-20T14:28:03.854Z,22.90
2022-10-20T14:30:38.723Z,19.80
2022-10-20T14:33:14.921Z,26.92
2022-10-20T14:35:57.287Z,19.17
2022-10-20T14:41:06.195Z,22.77
2022-10-20T14:44:05.119Z,27.45
2022-10-20T14:46:46.595Z,29.30
2022-10-20T14:49:17.397Z,20.33
2022-10-20T14:52:02.834Z,26.35
2022-10-20T14:54:40.114Z,16.50
2022-10-20T14:57:09.869Z,26.13
2022-10-20T14:59:57.596Z,17.25
2022-10-20T15:02:39.189Z,26.10
2022-10-20T15:05:33.500Z,16.88
2022-10-20T15:08:26.986Z,22.63
2022-10-20T15:10:54.124Z,15.88
2022-10-20T15:13:30.735Z,27.35
2022-10-20T15:16:05.045Z,20.83
2022-10-20T15:18:39.324Z,21.70
2022-10-20T15:21:14.946Z,22.67
2022-10-20T15:23:44.653Z,22.52
2022-10-20T15:26:14.224Z,19.77
2022-10-20T15:28:45.413Z,22.77
2022-10-20T15:31:27.403Z,22.48
2022-10-20T15:33:55.291Z,23.95
2022-10-20T15:36:29.820Z,15.82
2022-10-20T15:38:57.177Z,23.20
2022-10-20T15:41:32.181Z,20.05
2022-10-20T15:44:19.706Z,23.80
2022-10-20T15:46:48.120Z,21.83
2022-10-20T15:49:15.530Z,17.10
2022-10-20T15:51:47.324Z,22.35
2022-10-20T15:54:19.198Z,20.05
2022-10-20T15:56:49.232Z,20.70
2022-10-20T15:59:18.877Z,20.63
2022-10-20T16:01:45.711Z,21.05
2022-10-20T16:04:29.903Z,20.60
2022-10-20T16:07:03.163Z,20.88
2022-10-20T16:09:32.632Z,21.55
2022-10-20T16:12:01.931Z,21.67
2022-10-20T16:14:38.120Z,21.77
2022-10-20T16:17:06.742Z,21.10
2022-10-20T16:19:42.671Z,22.35
2022-10-20T16:22:15.009Z,20.25
2022-10-20T16:24:44.492Z,21.88
2022-10-20T16:27:12.268Z,21.52
2022-10-20T16:29:39.340Z,21.48
2022-10-20T16:32:06.301Z,22.27
2022-10-20T16:34:33.002Z,22.10
2022-10-20T16:37:02.763Z,23.15
2022-10-20T16:39:32.446Z,16.88
2022-10-20T16:41:59.164Z,16.42
2022-10-20T16:44:32.605Z,19.20
2022-10-20T16:46:59.595Z,23.75
2022-10-20T16:49:26.338Z,24.05
2022-10-20T16:51:52.992Z,23.75
2022-10-20T16:54:20.199Z,23.95
2022-10-20T16:56:50.041Z,22.55
2022-10-20T16:59:16.879Z,22.70
2022-10-20T17:01:49.070Z,16.63
2022-10-20T17:06:48.629Z,20.08
2022-10-20T17:09:15.543Z,21.42
2022-10-20T17:11:42.391Z,20.95
2022-10-20T17:14:14.872Z,20.65
2022-10-20T17:16:42.510Z,19.67
2022-10-20T17:19:09.301Z,20.00
2022-10-20T17:21:55.859Z,19.70
2022-10-20T17:24:24.612Z,15.85
2022-10-20T17:26:51.617Z,16.85
2022-10-20T17:29:23.619Z,14.68
2022-10-20T17:31:52.571Z,14.02
2022-10-20T17:34:19.454Z,13.80
2022-10-20T17:36:55.044Z,12.20
2022-10-20T17:39:24.954Z,12.13
2022-10-20T17:41:56.593Z,11.77
2022-10-20T17:44:29.697Z,11.75
2022-10-20T17:46:58.782Z,11.82
2022-10-20T17:49:25.780Z,11.68
2022-10-20T17:51:54.859Z,12.15
2022-10-20T17:54:25.819Z,11.60
2022-10-20T17:57:02.234Z,11.80
2022-10-20T17:59:38.170Z,13.02
2022-10-20T18:02:14.669Z,12.63
2022-10-20T18:04:41.909Z,11.48
2022-10-20T18:07:09.000Z,10.88
2022-10-20T18:09:41.703Z,11.05
2022-10-20T18:12:12.398Z,10.63
2022-10-20T18:14:40.898Z,11.02
2022-10-20T18:17:09.007Z,10.60
2022-10-20T18:19:37.103Z,11.27
2022-10-20T18:22:09.921Z,11.77
2022-10-20T18:24:39.768Z,10.35
2022-10-20T18:27:06.524Z,10.63
2022-10-20T18:29:33.283Z,11.10
2022-10-20T18:32:04.351Z,11.75
2022-10-20T18:34:33.136Z,10.98
2022-10-20T18:37:03.747Z,10.80
2022-10-20T18:39:33.989Z,11.07
2022-10-20T18:42:05.506Z,11.27
2022-10-20T18:44:35.345Z,12.80
2022-10-20T18:47:10.294Z,12.57
2022-10-20T18:49:37.331Z,12.60
2022-10-20T18:52:04.618Z,12.27
2022-10-20T18:54:37.538Z,11.80
2022-10-20T18:57:05.803Z,13.30
2022-10-20T18:59:36.826Z,13.45
2022-10-20T19:02:09.778Z,13.82
2022-10-20T19:04:37.129Z,14.20
2022-10-20T19:07:14.428Z,15.10
2022-10-20T19:09:53.390Z,14.40
2022-10-20T19:12:28.071Z,15.32
2022-10-20T19:14:54.769Z,15.40
2022-10-20T19:17:26.690Z,15.98
2022-10-20T19:19:54.473Z,16.30
2022-10-20T19:22:25.580Z,15.68
2022-10-20T19:24:56.778Z,15.80
2022-10-20T19:27:27.633Z,16.05
2022-10-20T19:29:56.061Z,16.20
2022-10-20T19:32:26.424Z,15.80
2022-10-20T19:34:53.951Z,16.55
2022-10-20T19:37:20.725Z,15.68
2022-10-20T19:39:49.822Z,17.20
2022-10-20T19:42:17.231Z,17.45
2022-10-20T19:44:45.503Z,18.58
2022-10-20T19:47:15.178Z,18.60
2022-10-20T19:49:47.270Z,18.30
2022-10-20T19:52:17.002Z,19.27
2022-10-20T19:54:48.313Z,19.27
2022-10-20T19:57:17.457Z,18.30
2022-10-20T19:59:47.495Z,16.95
2022-10-20T20:02:18.617Z,17.90
2022-10-20T20:04:45.430Z,17.27
2022-10-20T20:09:51.963Z,17.05
2022-10-20T20:12:19.405Z,18.35
2022-10-20T20:14:51.672Z,17.23
2022-10-20T20:17:18.850Z,19.35
2022-10-20T20:19:46.251Z,18.55
2022-10-20T20:22:24.705Z,17.77
2022-10-20T20:24:53.000Z,18.23
2022-10-20T20:27:19.612Z,18.85
2022-10-20T20:29:46.463Z,19.20
2022-10-20T20:32:17.676Z,18.75
2022-10-20T20:34:44.366Z,18.75
2022-10-20T20:37:15.262Z,18.90
2022-10-20T20:39:43.325Z,19.08
2022-10-20T20:42:17.960Z,20.27
2022-10-20T20:44:52.246Z,19.55
2022-10-20T20:47:18.946Z,20.35
2022-10-20T20:49:46.330Z,20.23
2022-10-20T20:52:16.227Z,21.45
2022-10-20T20:54:51.054Z,21.30
2022-10-20T20:57:17.916Z,20.83
2022-10-20T20:59:46.997Z,20.30
2022-10-20T21:02:13.785Z,19.90
2022-10-20T21:04:48.010Z,20.63
2022-10-20T21:07:15.166Z,22.85
2022-10-20T21:09:46.904Z,21.75
2022-10-20T21:12:16.583Z,22.13
2022-10-20T21:14:51.851Z,22.30
2022-10-20T21:17:32.887Z,23.67
2022-10-20T21:20:05.675Z,22.10
2022-10-20T21:22:34.745Z,22.38
2022-10-20T21:25:06.889Z,21.25
2022-10-20T21:27:36.371Z,20.83
2022-10-20T21:30:03.405Z,21.27
2022-10-20T21:32:40.577Z,22.02
2022-10-20T21:35:09.795Z,20.45
2022-10-20T21:37:46.840Z,19.30
2022-10-20T21:40:16.657Z,20.08
2022-10-20T21:42:46.646Z,18.60
2022-10-20T21:45:16.772Z,18.40
2022-10-20T21:50:17.199Z,18.85
2022-10-20T21:52:50.184Z,20.02
2022-10-20T21:55:19.958Z,18.88
2022-10-20T21:57:46.621Z,17.85
2022-10-20T22:00:13.498Z,19.08
2022-10-20T22:02:40.168Z,20.08
2022-10-20T22:05:09.941Z,20.15
2022-10-20T22:07:41.809Z,20.15
2022-10-20T22:10:08.769Z,22.92
2022-10-20T22:12:38.379Z,24.67
2022-10-20T22:15:05.471Z,25.27
2022-10-20T22:17:34.848Z,24.90
2022-10-20T22:20:02.169Z,25.95
2022-10-20T22:22:31.025Z,25.80
2022-10-20T22:25:00.463Z,26.73
2022-10-20T22:27:41.763Z,26.55
2022-10-20T22:30:09.610Z,28.40
2022-10-20T22:32:36.704Z,28.48
2022-10-20T22:35:04.129Z,28.63
2022-10-20T22:37:32.420Z,28.48
2022-10-20T22:39:59.545Z,28.92
2022-10-20T22:42:30.777Z,30.15
2022-10-20T22:44:57.805Z,30.92
2022-10-20T22:47:27.281Z,31.75
2022-10-20T22:49:59.836Z,30.95
2022-10-20T22:52:29.948Z,33.25
2022-10-20T22:54:59.773Z,38.10
2022-10-20T22:57:26.438Z,38.10
2022-10-20T22:59:53.334Z,38.60
2022-10-20T23:02:22.391Z,36.95
2022-10-20T23:04:56.665Z,37.72
2022-10-20T23:07:28.311Z,38.53
2022-10-20T23:09:55.605Z,38.47
2022-10-20T23:12:22.824Z,38.22
2022-10-20T23:14:49.692Z,33.78
2022-10-20T23:17:20.923Z,34.00
2022-10-20T23:19:47.657Z,32.55
2022-10-20T23:22:16.849Z,33.97
2022-10-20T23:24:46.800Z,33.45
2022-10-20T23:27:13.973Z,35.03
2022-10-20T23:29:40.712Z,34.30
2022-10-20T23:32:10.338Z,35.40
2022-10-20T23:34:37.156Z,36.33
2022-10-20T23:37:11.761Z,36.00
2022-10-20T23:39:38.788Z,34.22
2022-10-20T23:42:09.561Z,35.55
2022-10-20T23:44:36.221Z,35.17
2022-10-20T23:47:05.777Z,34.17
2022-10-20T23:49:32.571Z,32.67
2022-10-20T23:51:59.206Z,34.20
2022-10-20T23:54:25.930Z,32.95
2022-10-20T23:56:54.007Z,32.65
2022-10-20T23:59:20.672Z,34.47
